Time;durP1;ratioP1;P1;durP2;ratioP2;P2;SDS_P1;SDS_P2;PMS_P1;PMS_P2;Temp;Humidity;BMP_temperature;BMP_pressure;BME280_temperature;BME280_humidity;BME280_pressure;Samples;Min_cycle;Max_cycle;Signal;HPM_P1;HPM_P2
2022/07/12 00:02:02;;;;;;;4.20;3.53;;;;;;;;;;5099960;28;20048;-65
2022/07/12 00:04:28;;;;;;;4.97;3.80;;;;;;;;;;5100978;28;20130;-64
2022/07/12 00:06:54;;;;;;;6.95;3.95;;;;;;;;;;5106640;28;20044;-65
2022/07/12 00:09:21;;;;;;;4.18;3.67;;;;;;;;;;5097634;28;20049;-65
2022/07/12 00:11:47;;;;;;;4.45;3.83;;;;;;;;;;5103354;28;20055;-65
2022/07/12 00:14:14;;;;;;;4.88;4.00;;;;;;;;;;5106359;28;20553;-65
2022/07/12 00:16:40;;;;;;;;;;;;;;;;;;5106400;28;20685;-65
2022/07/12 00:19:07;;;;;;;6.28;3.88;;;;;;;;;;5106460;28;19928;-65
2022/07/12 00:21:33;;;;;;;5.68;3.95;;;;;;;;;;5104614;28;20044;-65
2022/07/12 00:23:59;;;;;;;4.32;3.45;;;;;;;;;;5103336;28;20055;-65
2022/07/12 00:26:25;;;;;;;7.07;4.68;;;;;;;;;;5095022;28;20036;-65
2022/07/12 00:28:51;;;;;;;5.93;5.30;;;;;;;;;;5105104;28;20567;-65
2022/07/12 00:31:17;;;;;;;5.38;4.75;;;;;;;;;;5105860;28;20040;-65
2022/07/12 00:33:44;;;;;;;8.05;5.45;;;;;;;;;;5090887;28;20135;-65
2022/07/12 00:36:10;;;;;;;7.47;4.15;;;;;;;;;;5105228;28;20059;-65
2022/07/12 00:38:36;;;;;;;8.15;6.03;;;;;;;;;;5094733;28;20044;-65
2022/07/12 00:41:02;;;;;;;8.82;6.15;;;;;;;;;;5084349;28;20080;-65
2022/07/12 00:43:29;;;;;;;6.13;5.40;;;;;;;;;;5084294;28;20044;-65
2022/07/12 00:45:55;;;;;;;9.25;6.00;;;;;;;;;;5087481;28;20051;-65
2022/07/12 00:48:21;;;;;;;10.13;6.20;;;;;;;;;;5105705;28;20583;-65
2022/07/12 00:50:47;;;;;;;7.82;5.25;;;;;;;;;;5105637;28;20114;-65
2022/07/12 00:53:14;;;;;;;5.88;5.28;;;;;;;;;;5105653;28;20048;-65
2022/07/12 00:55:40;;;;;;;5.45;4.82;;;;;;;;;;5105693;28;20072;-65
2022/07/12 00:58:06;;;;;;;6.13;5.00;;;;;;;;;;5102132;28;20108;-65
2022/07/12 01:00:33;;;;;;;9.30;5.45;;;;;;;;;;5105675;28;20127;-65
2022/07/12 01:03:01;;;;;;;9.07;5.70;;;;;;;;;;5105289;28;20044;-65
2022/07/12 01:05:28;;;;;;;7.38;4.90;;;;;;;;;;5097020;28;20080;-65
2022/07/12 01:07:55;;;;;;;7.27;5.40;;;;;;;;;;5096232;28;20112;-65
2022/07/12 01:10:21;;;;;;;6.35;5.38;;;;;;;;;;5098770;28;20051;-65
2022/07/12 01:12:48;;;;;;;7.53;5.07;;;;;;;;;;5098057;28;20075;-65
2022/07/12 01:15:15;;;;;;;6.35;4.90;;;;;;;;;;5105205;28;20463;-65
2022/07/12 01:17:41;;;;;;;5.88;5.18;;;;;;;;;;5105227;28;20048;-65
2022/07/12 01:20:07;;;;;;;6.50;4.53;;;;;;;;;;5095640;28;20044;-65
2022/07/12 01:22:35;;;;;;;6.30;4.75;;;;;;;;;;5096915;28;20101;-65
2022/07/12 01:25:02;;;;;;;9.73;6.00;;;;;;;;;;5101792;28;20087;-65
2022/07/12 01:27:28;;;;;;;5.40;4.60;;;;;;;;;;5104844;28;20097;-65
2022/07/12 01:29:55;;;;;;;7.03;5.35;;;;;;;;;;5104176;28;20103;-65
2022/07/12 01:32:24;;;;;;;5.43;4.82;;;;;;;;;;5100768;28;20041;-65
2022/07/12 01:35:00;;;;;;;7.18;5.10;;;;;;;;;;5084321;28;20041;-65
2022/07/12 01:37:29;;;;;;;4.72;4.30;;;;;;;;;;5097085;28;20078;-65
2022/07/12 01:39:56;;;;;;;6.68;5.10;;;;;;;;;;5105032;28;20036;-65
2022/07/12 01:42:23;;;;;;;6.35;4.55;;;;;;;;;;5104951;28;20050;-65
2022/07/12 01:44:50;;;;;;;13.82;5.93;;;;;;;;;;5087739;28;20039;-65
2022/07/12 01:47:17;;;;;;;7.70;4.35;;;;;;;;;;5094015;28;20040;-65
2022/07/12 01:49:43;;;;;;;5.65;5.03;;;;;;;;;;5100201;28;20089;-65
2022/07/12 01:52:09;;;;;;;5.40;4.80;;;;;;;;;;5104925;28;20120;-65
2022/07/12 01:54:36;;;;;;;5.30;4.75;;;;;;;;;;5103803;28;20079;-65
2022/07/12 01:57:03;;;;;;;5.72;4.75;;;;;;;;;;5104716;28;20047;-65
2022/07/12 01:59:29;;;;;;;5.75;5.10;;;;;;;;;;5104763;28;20047;-65
2022/07/12 02:01:56;;;;;;;4.70;4.30;;;;;;;;;;5085753;28;20052;-65
2022/07/12 02:04:22;;;;;;;6.38;4.68;;;;;;;;;;5093196;28;20095;-65
2022/07/12 02:06:48;;;;;;;4.90;4.47;;;;;;;;;;5101349;28;20059;-65
2022/07/12 02:09:15;;;;;;;9.45;5.32;;;;;;;;;;5104857;28;20044;-65
2022/07/12 02:11:42;;;;;;;8.02;5.00;;;;;;;;;;5104327;28;20052;-65
2022/07/12 02:14:09;;;;;;;11.07;5.60;;;;;;;;;;5104717;28;20040;-65
2022/07/12 02:16:35;;;;;;;5.72;5.13;;;;;;;;;;5097455;28;20072;-65
2022/07/12 02:19:02;;;;;;;6.93;5.68;;;;;;;;;;5103351;28;20036;-65
2022/07/12 02:21:28;;;;;;;8.15;6.00;;;;;;;;;;5104895;28;20079;-65
2022/07/12 02:23:54;;;;;;;6.72;5.88;;;;;;;;;;5104679;28;20492;-65
2022/07/12 02:26:20;;;;;;;6.22;5.50;;;;;;;;;;5097678;28;20047;-65
2022/07/12 02:28:46;;;;;;;7.25;5.50;;;;;;;;;;5104449;28;20047;-65
2022/07/12 02:31:12;;;;;;;7.57;5.38;;;;;;;;;;5097907;28;20051;-65
2022/07/12 02:33:38;;;;;;;5.50;4.85;;;;;;;;;;5083759;28;20504;-65
2022/07/12 02:36:04;;;;;;;10.10;5.10;;;;;;;;;;5089125;28;20047;-65
2022/07/12 02:38:30;;;;;;;5.15;4.65;;;;;;;;;;5104454;28;20100;-65
2022/07/12 02:40:57;;;;;;;5.88;4.32;;;;;;;;;;5098298;28;20040;-65
2022/07/12 02:43:27;;;;;;;5.43;4.93;;;;;;;;;;5104351;28;20094;-65
2022/07/12 02:45:53;;;;;;;7.82;5.95;;;;;;;;;;5103145;28;20044;-65
2022/07/12 02:48:20;;;;;;;5.22;4.72;;;;;;;;;;5091540;28;20085;-65
2022/07/12 02:50:46;;;;;;;5.60;4.95;;;;;;;;;;5103523;28;20048;-65
2022/07/12 02:53:12;;;;;;;5.63;4.95;;;;;;;;;;5103986;28;20036;-65
2022/07/12 02:55:39;;;;;;;6.82;5.72;;;;;;;;;;5105281;28;20055;-65
2022/07/12 02:58:08;;;;;;;8.18;5.93;;;;;;;;;;5107791;28;20483;-65
2022/07/12 03:00:35;;;;;;;6.90;6.20;;;;;;;;;;5101192;28;20044;-65
2022/07/12 03:03:04;;;;;;;7.07;5.93;;;;;;;;;;5103929;28;20376;-65
2022/07/12 03:05:30;;;;;;;10.93;6.38;;;;;;;;;;5106535;28;20048;-65
2022/07/12 03:07:56;;;;;;;5.55;4.93;;;;;;;;;;5107476;28;20062;-65
2022/07/12 03:10:23;;;;;;;9.48;5.07;;;;;;;;;;5101217;28;20141;-65
2022/07/12 03:12:49;;;;;;;7.88;5.28;;;;;;;;;;5087334;28;20045;-65
2022/07/12 03:15:15;;;;;;;7.60;6.80;;;;;;;;;;5106673;28;20044;-65
2022/07/12 03:17:42;;;;;;;10.07;7.20;;;;;;;;;;5107318;28;20048;-65
2022/07/12 03:20:11;;;;;;;10.43;7.30;;;;;;;;;;5105637;28;20078;-65
2022/07/12 03:22:37;;;;;;;7.70;6.60;;;;;;;;;;5107266;28;20083;-65
2022/07/12 03:25:04;;;;;;;8.38;7.05;;;;;;;;;;5107291;28;20127;-65
2022/07/12 03:27:33;;;;;;;9.70;7.32;;;;;;;;;;5106997;28;20047;-65
2022/07/12 03:29:59;;;;;;;9.32;6.45;;;;;;;;;;5096406;28;20041;-65
2022/07/12 03:32:26;;;;;;;9.25;8.30;;;;;;;;;;5085339;28;20100;-65
2022/07/12 03:34:52;;;;;;;9.52;7.88;;;;;;;;;;5086876;28;20048;-65
2022/07/12 03:37:18;;;;;;;10.68;7.82;;;;;;;;;;5101617;28;20038;-65
2022/07/12 03:39:44;;;;;;;8.90;7.32;;;;;;;;;;5103310;28;20115;-65
2022/07/12 03:42:13;;;;;;;8.60;7.68;;;;;;;;;;5099797;28;20042;-65
2022/07/12 03:44:39;;;;;;;8.48;7.68;;;;;;;;;;5106898;28;20547;-65
2022/07/12 03:47:06;;;;;;;10.57;8.60;;;;;;;;;;5106587;28;20040;-65
2022/07/12 03:49:32;;;;;;;13.30;7.95;;;;;;;;;;5092568;28;20044;-65
2022/07/12 03:51:58;;;;;;;10.68;7.47;;;;;;;;;;5106992;28;20123;-65
2022/07/12 03:54:24;;;;;;;17.58;8.98;;;;;;;;;;5107089;28;20044;-65
2022/07/12 03:59:35;;;;;;;11.77;9.05;;;;;;;;;;5106670;28;20071;-65
2022/07/12 04:02:02;;;;;;;14.23;8.55;;;;;;;;;;5106625;28;20118;-65
2022/07/12 04:04:28;;;;;;;15.40;9.68;;;;;;;;;;5106721;28;20131;-65
2022/07/12 04:06:54;;;;;;;16.23;9.80;;;;;;;;;;5103950;28;20108;-65
2022/07/12 04:09:20;;;;;;;12.25;9.20;;;;;;;;;;5106398;28;20051;-65
2022/07/12 04:11:46;;;;;;;25.45;12.48;;;;;;;;;;5106381;28;20108;-65
2022/07/12 04:14:12;;;;;;;19.23;9.85;;;;;;;;;;5106469;28;20103;-65
2022/07/12 04:16:39;;;;;;;10.35;8.07;;;;;;;;;;5093554;28;20399;-65
2022/07/12 04:19:05;;;;;;;13.00;8.82;;;;;;;;;;5101832;28;20050;-65
2022/07/12 04:21:32;;;;;;;19.50;10.05;;;;;;;;;;5101040;28;20055;-65
2022/07/12 04:23:58;;;;;;;13.60;10.43;;;;;;;;;;5106505;28;20039;-65
2022/07/12 04:26:24;;;;;;;15.18;10.40;;;;;;;;;;5095726;28;20166;-65
2022/07/12 04:28:50;;;;;;;15.10;10.57;;;;;;;;;;5103960;28;20059;-65
2022/07/12 04:31:16;;;;;;;15.02;9.35;;;;;;;;;;5093578;28;20143;-65
2022/07/12 04:33:42;;;;;;;21.05;9.45;;;;;;;;;;5092451;28;20074;-65
2022/07/12 04:36:08;;;;;;;72.88;9.90;;;;;;;;;;5095848;28;20403;-64
2022/07/12 04:38:34;;;;;;;23.60;9.43;;;;;;;;;;5093652;28;20076;-64
2022/07/12 04:41:00;;;;;;;21.75;10.00;;;;;;;;;;5103172;28;20039;-64
2022/07/12 04:43:26;;;;;;;11.68;9.38;;;;;;;;;;5103290;28;20519;-64
2022/07/12 04:45:53;;;;;;;12.70;9.77;;;;;;;;;;5097518;28;20055;-64
2022/07/12 04:48:19;;;;;;;14.93;10.60;;;;;;;;;;5101309;28;20040;-64
2022/07/12 04:50:45;;;;;;;14.20;10.40;;;;;;;;;;5096605;28;20052;-65
2022/07/12 04:53:11;;;;;;;14.30;8.88;;;;;;;;;;5097559;28;20040;-65
2022/07/12 04:55:37;;;;;;;13.52;9.23;;;;;;;;;;5111983;28;20044;-64
2022/07/12 04:58:04;;;;;;;18.70;9.68;;;;;;;;;;5100886;28;20040;-65
2022/07/12 05:00:30;;;;;;;14.32;9.63;;;;;;;;;;5106188;28;20044;-64
2022/07/12 05:02:56;;;;;;;17.25;10.07;;;;;;;;;;5084412;28;20051;-64
2022/07/12 05:05:23;;;;;;;22.20;11.52;;;;;;;;;;5091259;28;20062;-65
2022/07/12 05:07:49;;;;;;;18.80;11.10;;;;;;;;;;5104737;28;20039;-65
2022/07/12 05:10:15;;;;;;;17.92;11.90;;;;;;;;;;5096597;28;20046;-65
2022/07/12 05:12:41;;;;;;;15.02;10.05;;;;;;;;;;5096158;28;20048;-65
2022/07/12 05:15:07;;;;;;;16.67;10.55;;;;;;;;;;5099962;28;20048;-65
2022/07/12 05:17:34;;;;;;;11.00;8.27;;;;;;;;;;5094196;28;20044;-65
2022/07/12 05:20:00;;;;;;;11.38;8.88;;;;;;;;;;5087530;28;20095;-65
2022/07/12 05:22:26;;;;;;;14.13;8.73;;;;;;;;;;5091278;28;20058;-66
2022/07/12 05:24:52;;;;;;;10.80;7.38;;;;;;;;;;5088034;28;20047;-66
2022/07/12 05:27:18;;;;;;;10.32;8.02;;;;;;;;;;5087096;28;20051;-66
2022/07/12 05:29:44;;;;;;;11.43;7.05;;;;;;;;;;5096264;28;20045;-66
2022/07/12 05:32:11;;;;;;;9.25;7.50;;;;;;;;;;5099120;28;20035;-66
2022/07/12 05:34:38;;;;;;;11.38;7.07;;;;;;;;;;5086692;28;20049;-65
2022/07/12 05:37:04;;;;;;;8.95;7.13;;;;;;;;;;5084512;28;20060;-66
2022/07/12 05:39:30;;;;;;;8.90;7.15;;;;;;;;;;5084777;28;20044;-65
2022/07/12 05:41:56;;;;;;;9.43;7.60;;;;;;;;;;5102566;28;20047;-65
2022/07/12 05:44:22;;;;;;;12.82;7.15;;;;;;;;;;5103358;28;20040;-65
2022/07/12 05:46:49;;;;;;;9.75;6.18;;;;;;;;;;5083927;28;20044;-65
2022/07/12 05:49:15;;;;;;;8.65;5.57;;;;;;;;;;5085587;28;20073;-65
2022/07/12 05:54:26;;;;;;;10.32;5.97;;;;;;;;;;5097089;28;20395;-65
2022/07/12 05:56:52;;;;;;;7.28;6.05;;;;;;;;;;5103378;28;20135;-65
2022/07/12 05:59:18;;;;;;;9.27;6.47;;;;;;;;;;5101580;28;20044;-65
2022/07/12 06:01:44;;;;;;;8.30;6.00;;;;;;;;;;5102500;28;20505;-65
2022/07/12 06:04:11;;;;;;;7.93;6.20;;;;;;;;;;5102662;28;20083;-65
2022/07/12 06:06:37;;;;;;;8.98;6.40;;;;;;;;;;5103187;28;20086;-66
2022/07/12 06:09:03;;;;;;;7.10;6.40;;;;;;;;;;5104115;28;20113;-65
2022/07/12 06:11:30;;;;;;;5.70;4.80;;;;;;;;;;5097126;28;20052;-65
2022/07/12 06:13:56;;;;;;;5.65;4.80;;;;;;;;;;5098091;28;20075;-65
2022/07/12 06:16:22;;;;;;;5.88;4.60;;;;;;;;;;5104889;28;20040;-65
2022/07/12 06:18:48;;;;;;;7.45;4.30;;;;;;;;;;5103743;28;20244;-65
2022/07/12 06:21:14;;;;;;;4.97;4.03;;;;;;;;;;5096398;28;20062;-65
2022/07/12 06:23:40;;;;;;;7.68;4.78;;;;;;;;;;5096663;28;20071;-65
2022/07/12 06:26:06;;;;;;;4.78;3.97;;;;;;;;;;5100714;28;20124;-65
2022/07/12 06:28:32;;;;;;;4.70;3.83;;;;;;;;;;5101633;28;20040;-65
2022/07/12 06:30:58;;;;;;;5.97;4.65;;;;;;;;;;5090962;28;20135;-65
2022/07/12 06:33:24;;;;;;;4.22;3.72;;;;;;;;;;5097612;28;20100;-65
2022/07/12 06:35:51;;;;;;;7.53;4.25;;;;;;;;;;5103052;28;20068;-65
2022/07/12 06:38:17;;;;;;;4.40;4.00;;;;;;;;;;5096636;28;20131;-65
2022/07/12 06:40:43;;;;;;;6.03;3.92;;;;;;;;;;5093801;28;20066;-65
2022/07/12 06:43:10;;;;;;;5.85;3.53;;;;;;;;;;5092145;28;20067;-65
2022/07/12 06:45:36;;;;;;;4.43;3.97;;;;;;;;;;5099503;28;20054;-65
2022/07/12 06:48:03;;;;;;;6.40;4.13;;;;;;;;;;5087409;28;20088;-65
2022/07/12 06:50:29;;;;;;;4.38;3.95;;;;;;;;;;5085930;28;20102;-65
2022/07/12 06:52:55;;;;;;;4.72;3.92;;;;;;;;;;5117738;28;20063;-65
2022/07/12 06:55:21;;;;;;;4.75;4.05;;;;;;;;;;5118803;28;20048;-66
2022/07/12 06:57:47;;;;;;;4.72;4.13;;;;;;;;;;5103630;27;20074;-65
2022/07/12 07:00:14;;;;;;;3.80;3.38;;;;;;;;;;5106080;28;20384;-64
2022/07/12 07:02:40;;;;;;;3.97;3.25;;;;;;;;;;5093911;28;20100;-65
2022/07/12 07:05:06;;;;;;;3.47;2.80;;;;;;;;;;5100382;28;20048;-65
2022/07/12 07:07:33;;;;;;;6.32;3.42;;;;;;;;;;5099202;28;20092;-65
2022/07/12 07:09:59;;;;;;;3.47;2.90;;;;;;;;;;5108994;28;20058;-65
2022/07/12 07:12:25;;;;;;;4.55;2.88;;;;;;;;;;5096296;28;20048;-65
2022/07/12 07:14:52;;;;;;;7.65;3.28;;;;;;;;;;5102966;28;20075;-65
2022/07/12 07:17:19;;;;;;;3.28;2.85;;;;;;;;;;5105944;28;20035;-64
2022/07/12 07:19:45;;;;;;;3.95;3.22;;;;;;;;;;5097988;28;20100;-65
2022/07/12 07:22:15;;;;;;;2.90;2.53;;;;;;;;;;5093820;28;20090;-65
2022/07/12 07:24:41;;;;;;;4.05;3.05;;;;;;;;;;5096854;28;20059;-65
2022/07/12 07:27:08;;;;;;;8.48;2.80;;;;;;;;;;5106768;28;20095;-65
2022/07/12 07:32:19;;;;;;;5.78;2.60;;;;;;;;;;5094585;28;20052;-65
2022/07/12 07:34:45;;;;;;;5.28;2.35;;;;;;;;;;5095260;28;20112;-64
2022/07/12 07:37:11;;;;;;;4.00;2.33;;;;;;;;;;5099666;28;20067;-65
2022/07/12 07:39:38;;;;;;;8.32;2.55;;;;;;;;;;5105846;28;20044;-65
2022/07/12 07:42:04;;;;;;;2.78;2.50;;;;;;;;;;5097491;28;20128;-65
2022/07/12 07:44:30;;;;;;;5.03;2.30;;;;;;;;;;5099288;28;20051;-64
2022/07/12 07:46:57;;;;;;;2.15;1.90;;;;;;;;;;5100399;28;20044;-66
2022/07/12 07:49:23;;;;;;;3.05;2.20;;;;;;;;;;5105769;28;20065;-69
2022/07/12 07:51:49;;;;;;;2.88;2.20;;;;;;;;;;5106158;28;20135;-67
2022/07/12 07:54:15;;;;;;;4.00;2.33;;;;;;;;;;5103384;28;20036;-69
2022/07/12 07:56:41;;;;;;;2.50;1.83;;;;;;;;;;5105696;28;20063;-69
2022/07/12 07:59:07;;;;;;;3.20;1.92;;;;;;;;;;5107596;28;20043;-69
2022/07/12 08:01:44;;;;;;;2.70;1.73;;;;;;;;;;5108541;28;20044;-68
2022/07/12 08:04:14;;;;;;;2.03;1.83;;;;;;;;;;5103310;28;20056;-68
2022/07/12 08:06:40;;;;;;;2.35;1.90;;;;;;;;;;5103011;28;20048;-68
2022/07/12 08:09:07;;;;;;;3.13;1.70;;;;;;;;;;5100852;28;20040;-69
2022/07/12 08:11:33;;;;;;;1.97;1.77;;;;;;;;;;5108312;28;20055;-69
2022/07/12 08:13:59;;;;;;;2.17;1.50;;;;;;;;;;5099881;28;20105;-68
2022/07/12 08:16:25;;;;;;;3.07;2.00;;;;;;;;;;5100016;28;20055;-68
2022/07/12 08:18:52;;;;;;;2.80;1.88;;;;;;;;;;5104743;28;20066;-68
2022/07/12 08:21:18;;;;;;;3.87;1.43;;;;;;;;;;5083470;28;20071;-69
2022/07/12 08:23:44;;;;;;;4.72;2.00;;;;;;;;;;5105275;28;20040;-69
2022/07/12 08:26:10;;;;;;;8.55;1.95;;;;;;;;;;5105755;28;20092;-68
2022/07/12 08:28:36;;;;;;;2.33;1.83;;;;;;;;;;5099145;28;20039;-68
2022/07/12 08:31:03;;;;;;;5.00;1.60;;;;;;;;;;5093251;28;20047;-66
2022/07/12 08:33:29;;;;;;;3.22;1.80;;;;;;;;;;5101774;28;20047;-64
2022/07/12 08:35:55;;;;;;;1.42;1.33;;;;;;;;;;5094721;28;20051;-66
2022/07/12 08:38:21;;;;;;;3.13;2.10;;;;;;;;;;5103867;28;20074;-65
2022/07/12 08:40:48;;;;;;;2.20;1.60;;;;;;;;;;5101357;28;20052;-64
2022/07/12 08:43:15;;;;;;;2.03;1.60;;;;;;;;;;5105622;28;20048;-66
2022/07/12 08:45:41;;;;;;;2.10;1.73;;;;;;;;;;5094667;28;20044;-66
2022/07/12 08:48:08;;;;;;;2.80;1.58;;;;;;;;;;5104587;28;20051;-66
2022/07/12 08:50:35;;;;;;;2.20;1.65;;;;;;;;;;5099864;28;20044;-66
2022/07/12 08:53:01;;;;;;;2.72;1.80;;;;;;;;;;5103418;28;20097;-64
2022/07/12 08:55:34;;;;;;;2.15;1.95;;;;;;;;;;5094508;28;20066;-64
2022/07/12 08:58:07;;;;;;;3.17;2.05;;;;;;;;;;5096740;28;20081;-66
2022/07/12 09:00:34;;;;;;;1.80;1.33;;;;;;;;;;5106275;28;20073;-66
2022/07/12 09:03:01;;;;;;;3.20;1.70;;;;;;;;;;5101926;28;20047;-64
2022/07/12 09:05:31;;;;;;;3.00;1.85;;;;;;;;;;5103150;28;20458;-65
2022/07/12 09:08:05;;;;;;;2.10;1.70;;;;;;;;;;5099546;28;20036;-65
2022/07/12 09:10:31;;;;;;;2.03;1.55;;;;;;;;;;5098307;28;20043;-66
2022/07/12 09:12:58;;;;;;;3.00;2.27;;;;;;;;;;5087879;28;20083;-66
2022/07/12 09:15:24;;;;;;;2.63;1.88;;;;;;;;;;5108871;28;20329;-64
2022/07/12 09:18:02;;;;;;;3.15;1.98;;;;;;;;;;5109497;28;20399;-66
2022/07/12 09:20:32;;;;;;;2.03;1.45;;;;;;;;;;5097946;28;20092;-67
2022/07/12 09:22:59;;;;;;;3.33;2.40;;;;;;;;;;5104210;28;20074;-67
2022/07/12 09:25:25;;;;;;;;;;;;;;;;;;5110222;28;20039;-63
2022/07/12 09:27:53;;;;;;;2.90;1.90;;;;;;;;;;5104690;28;20819;-64
2022/07/12 09:30:20;;;;;;;3.70;1.60;;;;;;;;;;5100854;28;20049;-69
2022/07/12 09:38:24;;;;;;;2.08;1.85;;;;;;;;;;5104046;28;20044;-69
2022/07/12 09:40:50;;;;;;;6.05;2.13;;;;;;;;;;5133293;27;20040;-69
2022/07/12 09:43:18;;;;;;;3.13;1.90;;;;;;;;;;5109108;28;20044;-67
2022/07/12 09:45:44;;;;;;;2.58;1.88;;;;;;;;;;5104548;28;20039;-70
2022/07/12 09:48:13;;;;;;;2.10;1.70;;;;;;;;;;5104943;28;20139;-67
2022/07/12 09:50:39;;;;;;;4.43;2.10;;;;;;;;;;5108660;28;20337;-65
2022/07/12 09:53:06;;;;;;;2.10;1.90;;;;;;;;;;5100859;28;20082;-66
2022/07/12 09:55:33;;;;;;;4.05;2.20;;;;;;;;;;5103078;28;20055;-67
2022/07/12 09:58:01;;;;;;;2.40;2.15;;;;;;;;;;5102643;28;20063;-69
2022/07/12 10:00:28;;;;;;;3.83;1.52;;;;;;;;;;5106629;28;20108;-64
2022/07/12 10:02:55;;;;;;;3.72;2.08;;;;;;;;;;5102165;28;20048;-65
2022/07/12 10:05:24;;;;;;;3.97;2.15;;;;;;;;;;5100202;28;20067;-64
2022/07/12 10:07:51;;;;;;;3.90;2.08;;;;;;;;;;5111466;28;20103;-69
2022/07/12 10:10:17;;;;;;;5.25;1.80;;;;;;;;;;5096625;28;20052;-67
2022/07/12 10:12:44;;;;;;;2.65;2.40;;;;;;;;;;5094506;28;20108;-69
2022/07/12 10:15:14;;;;;;;3.28;1.73;;;;;;;;;;5101660;28;20055;-66
2022/07/12 10:17:42;;;;;;;2.13;1.80;;;;;;;;;;5107617;28;20040;-66
2022/07/12 10:20:24;;;;;;;3.88;1.48;;;;;;;;;;5111981;28;20075;-71
2022/07/12 10:23:16;;;;;;;2.80;1.80;;;;;;;;;;5099565;28;20048;-69
2022/07/12 10:25:42;;;;;;;9.57;1.67;;;;;;;;;;5106163;28;20036;-69
2022/07/12 10:28:09;;;;;;;2.60;1.73;;;;;;;;;;5102405;28;20514;-67
2022/07/12 10:30:43;;;;;;;2.25;1.40;;;;;;;;;;5105736;28;20119;-66
2022/07/12 10:33:22;;;;;;;1.83;1.65;;;;;;;;;;5099611;28;20044;-65
2022/07/12 10:36:05;;;;;;;3.10;1.60;;;;;;;;;;5113033;28;20102;-66
2022/07/12 10:38:32;;;;;;;1.92;1.52;;;;;;;;;;5096645;28;20047;-68
2022/07/12 10:40:58;;;;;;;3.20;1.60;;;;;;;;;;5104767;28;20127;-66
2022/07/12 10:46:14;;;;;;;3.45;1.15;;;;;;;;;;5094536;28;20052;-67
2022/07/12 10:48:40;;;;;;;5.40;1.15;;;;;;;;;;5100840;28;20097;-67
2022/07/12 10:51:14;;;;;;;0.80;0.80;;;;;;;;;;5104360;28;20072;-65
2022/07/12 10:53:45;;;;;;;1.70;1.00;;;;;;;;;;5108846;28;20051;-72
2022/07/12 10:56:22;;;;;;;4.15;0.90;;;;;;;;;;5106219;28;20051;-72
2022/07/12 10:58:48;;;;;;;0.90;0.60;;;;;;;;;;5106105;28;20063;-71
2022/07/12 11:01:18;;;;;;;1.60;0.90;;;;;;;;;;5106181;28;20071;-71
2022/07/12 11:03:46;;;;;;;12.70;2.25;;;;;;;;;;5105067;28;20381;-68
2022/07/12 11:06:22;;;;;;;1.17;0.70;;;;;;;;;;5097677;28;20558;-69
2022/07/12 11:08:49;;;;;;;1.85;0.60;;;;;;;;;;5106218;28;20120;-69
2022/07/12 11:11:15;;;;;;;3.38;1.00;;;;;;;;;;5095771;28;20056;-65
2022/07/12 11:13:42;;;;;;;3.43;0.70;;;;;;;;;;5099781;28;20045;-65
2022/07/12 11:16:08;;;;;;;1.67;0.63;;;;;;;;;;5094725;28;20070;-66
2022/07/12 11:18:35;;;;;;;2.65;0.80;;;;;;;;;;5102903;28;20446;-68
2022/07/12 11:21:01;;;;;;;1.17;0.70;;;;;;;;;;5094971;28;20075;-63
2022/07/12 11:23:28;;;;;;;2.92;0.90;;;;;;;;;;5101115;28;20055;-64
2022/07/12 11:25:58;;;;;;;1.80;0.80;;;;;;;;;;5112942;28;20085;-63
2022/07/12 11:28:24;;;;;;;2.25;0.95;;;;;;;;;;5105851;28;20107;-69
2022/07/12 11:30:54;;;;;;;1.05;0.70;;;;;;;;;;5098515;28;20077;-68
2022/07/12 11:33:32;;;;;;;2.95;1.20;;;;;;;;;;5096557;28;20116;-67
2022/07/12 11:35:58;;;;;;;3.00;1.10;;;;;;;;;;5101398;28;20044;-67
2022/07/12 11:38:25;;;;;;;1.60;1.10;;;;;;;;;;5098894;28;20044;-66
2022/07/12 11:40:59;;;;;;;1.73;0.70;;;;;;;;;;5102332;28;20051;-67
2022/07/12 11:43:26;;;;;;;0.73;0.60;;;;;;;;;;5092424;28;20040;-67
2022/07/12 11:45:53;;;;;;;1.73;0.73;;;;;;;;;;5104836;28;20028;-71
2022/07/12 11:48:19;;;;;;;1.90;0.80;;;;;;;;;;5097413;28;20040;-69
2022/07/12 11:50:46;;;;;;;1.00;0.80;;;;;;;;;;5099652;28;20040;-69
2022/07/12 11:53:22;;;;;;;1.38;0.80;;;;;;;;;;5102018;28;20049;-66
2022/07/12 11:55:49;;;;;;;3.65;0.75;;;;;;;;;;5106816;28;20862;-66
2022/07/12 11:58:15;;;;;;;1.77;1.00;;;;;;;;;;5106694;28;20100;-65
2022/07/12 12:00:42;;;;;;;1.52;1.10;;;;;;;;;;5108710;28;20044;-65
2022/07/12 12:03:08;;;;;;;2.70;0.85;;;;;;;;;;5098524;28;20104;-68
2022/07/12 12:05:35;;;;;;;1.30;0.73;;;;;;;;;;5104380;28;20070;-67
2022/07/12 12:08:01;;;;;;;1.27;0.52;;;;;;;;;;5104002;28;20044;-67
2022/07/12 12:10:28;;;;;;;2.63;0.63;;;;;;;;;;5102736;28;20059;-68
2022/07/12 12:12:58;;;;;;;0.63;0.52;;;;;;;;;;5106363;28;20067;-67
2022/07/12 12:15:28;;;;;;;1.67;0.80;;;;;;;;;;5133438;27;20035;-68
2022/07/12 12:17:58;;;;;;;3.22;0.90;;;;;;;;;;5093433;28;20040;-69
2022/07/12 12:20:25;;;;;;;2.28;0.73;;;;;;;;;;5093892;28;20040;-72
2022/07/12 12:22:55;;;;;;;2.50;0.88;;;;;;;;;;5138908;27;20047;-73
2022/07/12 12:25:22;;;;;;;1.70;0.75;;;;;;;;;;5098979;28;20036;-66
2022/07/12 12:27:50;;;;;;;2.88;0.50;;;;;;;;;;5108896;28;20109;-66
2022/07/12 12:30:17;;;;;;;4.10;0.70;;;;;;;;;;5119176;28;20108;-66
2022/07/12 12:32:52;;;;;;;1.48;0.63;;;;;;;;;;5114489;28;20048;-66
2022/07/12 12:35:19;;;;;;;1.42;0.60;;;;;;;;;;5105831;28;20040;-66
2022/07/12 12:37:53;;;;;;;1.20;0.60;;;;;;;;;;5086847;28;20104;-66
2022/07/12 12:40:23;;;;;;;2.13;0.88;;;;;;;;;;5085532;28;20048;-66
2022/07/12 12:42:49;;;;;;;1.02;0.60;;;;;;;;;;5085189;28;20067;-66
2022/07/12 12:45:19;;;;;;;2.75;0.73;;;;;;;;;;5103672;28;20062;-65
2022/07/12 12:47:52;;;;;;;3.50;0.65;;;;;;;;;;5091501;27;20078;-65
2022/07/12 12:50:18;;;;;;;1.20;0.77;;;;;;;;;;5085371;28;20048;-66
2022/07/12 12:52:49;;;;;;;1.33;0.80;;;;;;;;;;5086191;28;20522;-66
2022/07/12 12:55:15;;;;;;;1.75;0.80;;;;;;;;;;5108188;28;20060;-65
2022/07/12 12:57:41;;;;;;;1.35;1.00;;;;;;;;;;5084785;28;20054;-66
2022/07/12 13:00:08;;;;;;;1.58;0.95;;;;;;;;;;5094789;28;20055;-66
2022/07/12 13:02:34;;;;;;;4.68;1.67;;;;;;;;;;5084556;28;20040;-66
2022/07/12 13:05:01;;;;;;;3.45;1.30;;;;;;;;;;5107820;28;20450;-66
2022/07/12 13:07:28;;;;;;;1.83;1.30;;;;;;;;;;5084980;28;20086;-66
2022/07/12 13:09:54;;;;;;;1.30;1.00;;;;;;;;;;5084734;28;20506;-66
2022/07/12 13:12:20;;;;;;;4.47;1.33;;;;;;;;;;5084999;28;20083;-66
2022/07/12 13:14:46;;;;;;;1.48;1.20;;;;;;;;;;5113176;28;20047;-66
2022/07/12 13:17:12;;;;;;;2.08;1.20;;;;;;;;;;5084387;28;20486;-66
2022/07/12 13:19:38;;;;;;;1.73;1.20;;;;;;;;;;5085046;28;20123;-66
2022/07/12 13:22:05;;;;;;;3.03;1.95;;;;;;;;;;5084834;28;20044;-66
2022/07/12 13:24:32;;;;;;;1.85;1.30;;;;;;;;;;5085816;28;20056;-66
2022/07/12 13:26:58;;;;;;;4.75;1.50;;;;;;;;;;5084558;28;20091;-66
2022/07/12 13:29:24;;;;;;;5.05;1.50;;;;;;;;;;5096845;28;20353;-66
2022/07/12 13:31:50;;;;;;;3.38;1.40;;;;;;;;;;5084036;28;20056;-66
2022/07/12 13:34:16;;;;;;;3.40;1.02;;;;;;;;;;5100480;28;20043;-66
2022/07/12 13:36:43;;;;;;;2.47;1.10;;;;;;;;;;5093743;28;20496;-66
2022/07/12 13:41:53;;;;;;;3.03;1.10;;;;;;;;;;5083950;28;20051;-66
2022/07/12 13:44:19;;;;;;;1.45;1.00;;;;;;;;;;5101744;28;20067;-65
2022/07/12 13:46:46;;;;;;;4.37;1.00;;;;;;;;;;5095636;28;20045;-65
2022/07/12 13:49:12;;;;;;;6.23;1.20;;;;;;;;;;5098586;28;20127;-66
2022/07/12 13:51:38;;;;;;;3.35;0.70;;;;;;;;;;5084446;28;20045;-66
2022/07/12 13:54:04;;;;;;;2.10;0.85;;;;;;;;;;5097811;28;20479;-66
2022/07/12 13:56:30;;;;;;;1.55;0.73;;;;;;;;;;5099983;28;20064;-65
2022/07/12 13:58:56;;;;;;;4.78;0.90;;;;;;;;;;5083201;28;20044;-66
2022/07/12 14:01:23;;;;;;;1.25;0.82;;;;;;;;;;5091590;28;20055;-66
2022/07/12 14:03:49;;;;;;;1.42;0.80;;;;;;;;;;5103656;28;20050;-66
2022/07/12 14:06:15;;;;;;;2.90;0.80;;;;;;;;;;5107389;28;20089;-65
2022/07/12 14:08:41;;;;;;;5.97;1.43;;;;;;;;;;5101526;28;20082;-66
2022/07/12 14:11:07;;;;;;;1.83;0.87;;;;;;;;;;5102831;28;20074;-66
2022/07/12 14:13:33;;;;;;;1.50;1.10;;;;;;;;;;5103897;28;20079;-65
2022/07/12 14:15:59;;;;;;;1.20;0.93;;;;;;;;;;5103808;28;20044;-66
2022/07/12 14:18:26;;;;;;;3.13;1.40;;;;;;;;;;5103528;28;20032;-65
2022/07/12 14:20:52;;;;;;;3.80;1.37;;;;;;;;;;5101686;28;20286;-65
2022/07/12 14:23:19;;;;;;;1.20;0.90;;;;;;;;;;5101662;28;20071;-66
2022/07/12 14:25:45;;;;;;;;;;;;;;;;;;5096108;28;20301;-66
2022/07/12 14:28:11;;;;;;;2.03;1.33;;;;;;;;;;5103514;28;20212;-66
2022/07/12 14:30:37;;;;;;;2.17;1.10;;;;;;;;;;5105440;28;20047;-65
2022/07/12 14:33:03;;;;;;;3.03;1.00;;;;;;;;;;5102074;28;20067;-66
2022/07/12 14:35:29;;;;;;;2.55;1.10;;;;;;;;;;5105142;28;20048;-65
2022/07/12 14:37:55;;;;;;;1.13;1.00;;;;;;;;;;5102478;28;20040;-66
2022/07/12 14:40:21;;;;;;;1.75;1.35;;;;;;;;;;5104007;28;20091;-65
2022/07/12 14:42:48;;;;;;;5.20;1.47;;;;;;;;;;5103444;28;20058;-65
2022/07/12 14:45:14;;;;;;;2.50;1.30;;;;;;;;;;5100258;28;20036;-66
2022/07/12 14:47:40;;;;;;;2.90;1.57;;;;;;;;;;5103459;28;20066;-66
2022/07/12 14:50:07;;;;;;;2.60;1.10;;;;;;;;;;5104223;28;20051;-65
2022/07/12 14:52:33;;;;;;;5.25;1.40;;;;;;;;;;5106058;28;20052;-65
2022/07/12 14:54:59;;;;;;;1.80;1.47;;;;;;;;;;5113891;28;20103;-65
2022/07/12 14:57:25;;;;;;;5.75;1.63;;;;;;;;;;5107657;28;20043;-65
2022/07/12 14:59:51;;;;;;;1.53;1.10;;;;;;;;;;5107469;28;20069;-65